American Star — WDD7311 — position and weather

sailwx.info

Track history (hours):
 
Tides and Currents Weather Stations Pressure Air Temp Water Temp Dewpoint Dewpoint Depression Visibility Wind Speed Wind Dir Waves Ship Positions

American Star

Owner: American Cruise Lines, Inc, Delmar, DE. More information available from US FCC via Universal Licensing System and Coast Guard Vessel Documentation Center.

Last reported at 2016-May-29 09:32 UTC. Time now 2016-May-30 01:10 UTC.
Position N 37°14' W 076°20'.

Length 60 m; draft 2.1 m.

Type: Ship (hazmat cat C). MMSI: 367184740.

Date/timePositionNaut miles runAvg speedWind from/ knotsBaromVisibWave heightAir tempDewpointWater temp
2016-May-29 09:32N 37°14' W 076°20'14 6.9
2016-May-29 07:26N 37°26' W 076°10'8 8.4
2016-May-29 06:33N 37°34' W 076°10'9 9.1
2016-May-29 05:33N 37°43' W 076°11'9 9.1
2016-May-29 04:33N 37°52' W 076°10'9 8.9
2016-May-29 03:33N 38°00' W 076°13'8 8.0
2016-May-29 02:33N 38°08' W 076°16'9 8.6
2016-May-29 01:33N 38°16' W 076°19'8 8.4
2016-May-29 00:33N 38°25' W 076°22'25 8.1
2016-May-28 21:29N 38°49' W 076°26'8 9.0
2016-May-28 20:33N 38°57' W 076°24'9 9.2
2016-May-28 19:33N 39°07' W 076°24'8 8.3
2016-May-28 18:33N 39°12' W 076°31'6 6.1
2016-May-28 17:31N 39°17' W 076°37'0 0.0
2016-May-28 16:10N 39°17' W 076°37'0 0.0
2016-May-27 23:22N 39°17' W 076°37'0 0.0
2016-May-27 22:10N 39°17' W 076°37'0 0.0
2016-May-27 20:04N 39°17' W 076°37'0 0.0
2016-May-27 19:28N 39°17' W 076°37'0 0.0
2016-May-27 18:22N 39°17' W 076°37'0 0.0
2016-May-27 16:03N 39°17' W 076°37'2 4.0
2016-May-27 15:32N 39°16' W 076°34'1110.9
2016-May-27 14:33N 39°09' W 076°24'1211.7
2016-May-27 13:33N 38°57' W 076°24'7 7.3
2016-May-27 12:33N 38°51' W 076°19'6 2.6
2016-May-27 10:22N 38°47' W 076°13'0 0.0
2016-May-27 06:07N 38°47' W 076°13'0 0.0
2016-May-27 05:31N 38°47' W 076°13'0 0.0
2016-May-27 04:31N 38°47' W 076°13'0 0.0
2016-May-27 03:28N 38°47' W 076°13'0 0.0
2016-May-27 02:10N 38°47' W 076°13'0 0.0
2016-May-26 13:28N 38°47' W 076°13'0 0.0
2016-May-26 12:31N 38°47' W 076°13'2 2.2
2016-May-26 11:33N 38°49' W 076°13'5 4.8
2016-May-26 10:33N 38°51' W 076°19'9 8.8
2016-May-26 09:33N 38°44' W 076°27'10 9.7
2016-May-26 08:33N 38°35' W 076°27'10 9.5
2016-May-26 07:33N 38°26' W 076°23'1010.0
2016-May-26 06:33N 38°16' W 076°19'10 9.9
2016-May-26 05:33N 38°07' W 076°15'12 9.9
2016-May-26 04:21N 37°55' W 076°11'62 8.7
2016-May-25 21:12N 36°54' W 076°20'3 5.1
2016-May-25 20:31N 36°51' W 076°18'0 0.0
2016-May-25 19:31N 36°51' W 076°18'0 0.0
2016-May-25 18:31N 36°51' W 076°18'0 0.0
2016-May-25 17:31N 36°51' W 076°18'0 0.0
2016-May-25 16:34N 36°51' W 076°18'0 0.0
2016-May-25 15:31N 36°51' W 076°18'0 0.0
2016-May-25 14:31N 36°51' W 076°18'0 0.0
2016-May-25 13:31N 36°51' W 076°18'0 0.0
2016-May-25 12:31N 36°51' W 076°18'0 0.0
2016-May-25 11:31N 36°51' W 076°18'0 0.0
2016-May-25 10:31N 36°51' W 076°18'0 0.0
2016-May-25 09:31N 36°51' W 076°18'0 0.0
2016-May-25 08:31N 36°51' W 076°18'0 0.0
2016-May-25 07:31N 36°51' W 076°18'0 0.0
2016-May-25 06:31N 36°51' W 076°18'0 0.0
2016-May-25 05:31N 36°51' W 076°18'2 2.6
2016-May-25 04:33N 36°48' W 076°17'3 3.2
2016-May-25 03:33N 36°45' W 076°18'70 3.4
2016-May-24 07:08N 35°35' W 076°15'35 5.3
2016-May-24 00:33N 35°04' W 076°33'9 8.7
2016-May-23 23:34N 34°59' W 076°42'6 5.5
2016-May-23 22:33N 34°53' W 076°41'6 6.1
2016-May-23 21:34N 34°47' W 076°41'5 4.8
2016-May-23 20:32N 34°42' W 076°41'0 0.0
2016-May-23 19:32N 34°42' W 076°41'0 0.0
2016-May-23 18:32N 34°42' W 076°41'0 0.0
2016-May-23 17:32N 34°42' W 076°41'0 0.0
2016-May-23 16:32N 34°42' W 076°41'0 0.0
2016-May-23 15:32N 34°42' W 076°41'0 0.0
2016-May-23 14:32N 34°42' W 076°41'0 0.0
2016-May-23 13:32N 34°42' W 076°41'0 0.0
2016-May-23 12:32N 34°42' W 076°41'0 0.0
2016-May-23 11:29N 34°42' W 076°41'0 0.0
2016-May-23 10:32N 34°42' W 076°41'0 0.0
2016-May-23 09:32N 34°42' W 076°41'0 0.0
2016-May-23 08:32N 34°42' W 076°41'0 0.0
2016-May-23 07:33N 34°42' W 076°41'7 6.7
2016-May-23 06:33N 34°39' W 076°48'1111.2
2016-May-23 05:33N 34°37' W 077°02'  
Track history (hours):
 
Tides and Currents Weather Stations Pressure Air Temp Water Temp Dewpoint Dewpoint Depression Visibility Wind Speed Wind Dir Waves Ship Positions

American Star

Owner: American Cruise Lines, Inc, Delmar, DE. More information available from US FCC via Universal Licensing System and Coast Guard Vessel Documentation Center.

Last reported at 2016-May-29 09:32 UTC. Time now 2016-May-30 01:10 UTC.
Position N 37°14' W 076°20'.

Length 60 m; draft 2.1 m.

Type: Ship (hazmat cat C). MMSI: 367184740.

Date/timePositionNaut miles runAvg speedWind from/ knotsBaromVisibWave heightAir tempDewpointWater temp
2016-May-29 09:32N 37°14' W 076°20'14 6.9
2016-May-29 07:26N 37°26' W 076°10'8 8.4
2016-May-29 06:33N 37°34' W 076°10'9 9.1
2016-May-29 05:33N 37°43' W 076°11'9 9.1
2016-May-29 04:33N 37°52' W 076°10'9 8.9
2016-May-29 03:33N 38°00' W 076°13'8 8.0
2016-May-29 02:33N 38°08' W 076°16'9 8.6
2016-May-29 01:33N 38°16' W 076°19'8 8.4
2016-May-29 00:33N 38°25' W 076°22'25 8.1
2016-May-28 21:29N 38°49' W 076°26'8 9.0
2016-May-28 20:33N 38°57' W 076°24'9 9.2
2016-May-28 19:33N 39°07' W 076°24'8 8.3
2016-May-28 18:33N 39°12' W 076°31'6 6.1
2016-May-28 17:31N 39°17' W 076°37'0 0.0
2016-May-28 16:10N 39°17' W 076°37'0 0.0
2016-May-27 23:22N 39°17' W 076°37'0 0.0
2016-May-27 22:10N 39°17' W 076°37'0 0.0
2016-May-27 20:04N 39°17' W 076°37'0 0.0
2016-May-27 19:28N 39°17' W 076°37'0 0.0
2016-May-27 18:22N 39°17' W 076°37'0 0.0
2016-May-27 16:03N 39°17' W 076°37'2 4.0
2016-May-27 15:32N 39°16' W 076°34'1110.9
2016-May-27 14:33N 39°09' W 076°24'1211.7
2016-May-27 13:33N 38°57' W 076°24'7 7.3
2016-May-27 12:33N 38°51' W 076°19'6 2.6
2016-May-27 10:22N 38°47' W 076°13'0 0.0
2016-May-27 06:07N 38°47' W 076°13'0 0.0
2016-May-27 05:31N 38°47' W 076°13'0 0.0
2016-May-27 04:31N 38°47' W 076°13'0 0.0
2016-May-27 03:28N 38°47' W 076°13'0 0.0
2016-May-27 02:10N 38°47' W 076°13'0 0.0
2016-May-26 13:28N 38°47' W 076°13'0 0.0
2016-May-26 12:31N 38°47' W 076°13'2 2.2
2016-May-26 11:33N 38°49' W 076°13'5 4.8
2016-May-26 10:33N 38°51' W 076°19'9 8.8
2016-May-26 09:33N 38°44' W 076°27'10 9.7
2016-May-26 08:33N 38°35' W 076°27'10 9.5
2016-May-26 07:33N 38°26' W 076°23'1010.0
2016-May-26 06:33N 38°16' W 076°19'10 9.9
2016-May-26 05:33N 38°07' W 076°15'12 9.9
2016-May-26 04:21N 37°55' W 076°11'62 8.7
2016-May-25 21:12N 36°54' W 076°20'3 5.1
2016-May-25 20:31N 36°51' W 076°18'0 0.0
2016-May-25 19:31N 36°51' W 076°18'0 0.0
2016-May-25 18:31N 36°51' W 076°18'0 0.0
2016-May-25 17:31N 36°51' W 076°18'0 0.0
2016-May-25 16:34N 36°51' W 076°18'0 0.0
2016-May-25 15:31N 36°51' W 076°18'0 0.0
2016-May-25 14:31N 36°51' W 076°18'0 0.0
2016-May-25 13:31N 36°51' W 076°18'0 0.0
2016-May-25 12:31N 36°51' W 076°18'0 0.0
2016-May-25 11:31N 36°51' W 076°18'0 0.0
2016-May-25 10:31N 36°51' W 076°18'0 0.0
2016-May-25 09:31N 36°51' W 076°18'0 0.0
2016-May-25 08:31N 36°51' W 076°18'0 0.0
2016-May-25 07:31N 36°51' W 076°18'0 0.0
2016-May-25 06:31N 36°51' W 076°18'0 0.0
2016-May-25 05:31N 36°51' W 076°18'2 2.6
2016-May-25 04:33N 36°48' W 076°17'3 3.2
2016-May-25 03:33N 36°45' W 076°18'70 3.4
2016-May-24 07:08N 35°35' W 076°15'35 5.3
2016-May-24 00:33N 35°04' W 076°33'9 8.7
2016-May-23 23:34N 34°59' W 076°42'6 5.5
2016-May-23 22:33N 34°53' W 076°41'6 6.1
2016-May-23 21:34N 34°47' W 076°41'5 4.8
2016-May-23 20:32N 34°42' W 076°41'0 0.0
2016-May-23 19:32N 34°42' W 076°41'0 0.0
2016-May-23 18:32N 34°42' W 076°41'0 0.0
2016-May-23 17:32N 34°42' W 076°41'0 0.0
2016-May-23 16:32N 34°42' W 076°41'0 0.0
2016-May-23 15:32N 34°42' W 076°41'0 0.0
2016-May-23 14:32N 34°42' W 076°41'0 0.0
2016-May-23 13:32N 34°42' W 076°41'0 0.0
2016-May-23 12:32N 34°42' W 076°41'0 0.0
2016-May-23 11:29N 34°42' W 076°41'0 0.0
2016-May-23 10:32N 34°42' W 076°41'0 0.0
2016-May-23 09:32N 34°42' W 076°41'0 0.0
2016-May-23 08:32N 34°42' W 076°41'0 0.0
2016-May-23 07:33N 34°42' W 076°41'7 6.7
2016-May-23 06:33N 34°39' W 076°48'1111.2
2016-May-23 05:33N 34°37' W 077°02'  

Dump ship's entire track history